createdAt,value
2024-02-29T00:00:35.396Z,56.03
2024-02-29T00:03:03.634Z,50.53
2024-02-29T00:05:31.383Z,47.73
2024-02-29T00:07:58.986Z,55.17
2024-02-29T00:10:27.891Z,51.37
2024-02-29T00:12:55.664Z,53.87
2024-02-29T00:15:23.847Z,47.63
2024-02-29T00:17:51.441Z,55.80
2024-02-29T00:20:19.136Z,46.67
2024-02-29T00:22:47.176Z,52.37
2024-02-29T00:25:14.905Z,48.00
2024-02-29T00:27:43.902Z,56.07
2024-02-29T00:30:11.901Z,60.23
2024-02-29T00:32:39.736Z,52.60
2024-02-29T00:35:07.606Z,56.70
2024-02-29T00:37:35.575Z,52.20
2024-02-29T00:40:03.244Z,51.23
2024-02-29T00:42:30.962Z,57.33
2024-02-29T00:44:59.825Z,50.13
2024-02-29T00:47:27.458Z,53.90
2024-02-29T00:49:55.085Z,45.87
2024-02-29T00:52:22.745Z,55.03
2024-02-29T00:54:50.422Z,59.53
2024-02-29T00:57:18.630Z,55.03
2024-02-29T00:59:46.281Z,59.33
2024-02-29T01:02:15.214Z,54.60
2024-02-29T01:04:42.866Z,49.90
2024-02-29T01:07:10.615Z,49.93
2024-02-29T01:09:38.541Z,56.23
2024-02-29T01:12:06.633Z,53.33
2024-02-29T01:14:34.415Z,57.37
2024-02-29T01:17:02.063Z,56.73
2024-02-29T01:19:30.968Z,52.40
2024-02-29T01:21:58.606Z,55.03
2024-02-29T01:24:26.298Z,56.17
2024-02-29T01:26:53.950Z,56.57
2024-02-29T01:29:21.527Z,64.37
2024-02-29T01:31:49.126Z,57.43
2024-02-29T01:34:16.872Z,61.20
2024-02-29T01:36:46.310Z,52.03
2024-02-29T01:39:14.006Z,57.90
2024-02-29T01:41:41.640Z,55.80
2024-02-29T01:44:09.286Z,52.47
2024-02-29T01:46:36.934Z,49.47
2024-02-29T01:49:04.781Z,47.63
2024-02-29T01:51:33.266Z,55.77
2024-02-29T01:54:02.258Z,49.43
2024-02-29T01:56:29.912Z,53.70
2024-02-29T01:58:57.767Z,48.87
2024-02-29T02:01:25.969Z,52.67
2024-02-29T02:03:53.635Z,50.53
2024-02-29T02:06:21.267Z,48.43
2024-02-29T02:08:48.886Z,53.33
2024-02-29T02:11:17.826Z,47.47
2024-02-29T02:13:45.522Z,53.20
2024-02-29T02:16:13.338Z,51.60
2024-02-29T02:18:41.060Z,60.07
2024-02-29T02:21:09.934Z,43.90
2024-02-29T02:23:37.603Z,46.43
2024-02-29T02:26:05.482Z,47.63
2024-02-29T02:28:33.131Z,53.30
2024-02-29T02:31:00.883Z,44.67
2024-02-29T02:33:28.561Z,56.43
2024-02-29T02:35:56.882Z,49.70
2024-02-29T02:38:25.804Z,44.73
2024-02-29T02:40:53.418Z,49.50
2024-02-29T02:43:21.006Z,56.30
2024-02-29T02:45:48.662Z,52.07
2024-02-29T02:48:16.390Z,58.00
2024-02-29T02:50:43.140Z,46.70
2024-02-29T02:53:10.783Z,55.33
2024-02-29T02:55:39.747Z,55.73
2024-02-29T02:58:07.448Z,58.03
2024-02-29T03:00:35.386Z,53.37
2024-02-29T03:03:03.467Z,43.57
2024-02-29T03:05:31.474Z,53.17
2024-02-29T03:07:59.668Z,52.73
2024-02-29T03:10:27.365Z,52.30
2024-02-29T03:12:56.351Z,45.73
2024-02-29T03:15:23.950Z,58.53
2024-02-29T03:17:51.563Z,51.10
2024-02-29T03:20:19.283Z,48.77
2024-02-29T03:22:46.995Z,55.27
2024-02-29T03:25:14.738Z,50.30
2024-02-29T03:27:42.559Z,45.90
2024-02-29T03:30:11.799Z,42.07
2024-02-29T03:32:39.496Z,43.17
2024-02-29T03:35:07.535Z,58.97
2024-02-29T03:37:36.251Z,47.90
2024-02-29T03:40:05.151Z,47.20
2024-02-29T03:42:33.039Z,58.07
2024-02-29T03:45:00.730Z,54.03
2024-02-29T03:47:29.583Z,48.73
2024-02-29T03:49:57.200Z,53.47
2024-02-29T03:52:24.814Z,53.63
2024-02-29T03:54:52.693Z,60.63
2024-02-29T03:57:20.309Z,54.87
2024-02-29T03:59:48.307Z,51.67
2024-02-29T04:02:16.351Z,63.37
2024-02-29T04:04:45.963Z,54.43
2024-02-29T04:07:13.632Z,56.50
2024-02-29T04:09:41.403Z,53.97
2024-02-29T04:12:09.100Z,62.27
2024-02-29T04:14:39.624Z,54.33
2024-02-29T04:17:07.331Z,58.03
2024-02-29T04:19:34.921Z,58.43
2024-02-29T04:22:03.909Z,62.43
2024-02-29T04:24:31.534Z,61.17
2024-02-29T04:26:58.370Z,68.13
2024-02-29T04:29:25.979Z,54.50
2024-02-29T04:31:53.638Z,51.80
2024-02-29T04:34:21.318Z,56.63
2024-02-29T04:36:49.696Z,54.13
2024-02-29T04:39:19.350Z,62.57
2024-02-29T04:41:47.541Z,63.07
2024-02-29T04:44:15.188Z,59.43
2024-02-29T04:46:43.190Z,57.13
2024-02-29T04:49:11.348Z,58.70
2024-02-29T04:51:39.062Z,70.57
2024-02-29T04:54:06.785Z,56.47
2024-02-29T04:56:36.557Z,62.53
2024-02-29T04:59:05.608Z,58.77
2024-02-29T05:01:33.723Z,55.80
2024-02-29T05:04:01.575Z,61.93
2024-02-29T05:06:29.609Z,57.10
2024-02-29T05:08:57.331Z,53.40
2024-02-29T05:11:24.944Z,52.27
2024-02-29T05:13:53.891Z,51.17
2024-02-29T05:16:21.873Z,54.67
2024-02-29T05:18:49.635Z,51.90
2024-02-29T05:21:17.290Z,49.50
2024-02-29T05:23:44.949Z,53.47
2024-02-29T05:26:12.676Z,51.57
2024-02-29T05:28:40.302Z,51.17
2024-02-29T05:31:09.661Z,52.60
2024-02-29T05:33:38.790Z,57.43
2024-02-29T05:36:06.737Z,47.20
2024-02-29T05:38:34.634Z,57.23
2024-02-29T05:41:03.277Z,52.60
2024-02-29T05:43:33.918Z,53.33
2024-02-29T05:46:03.672Z,55.00
2024-02-29T05:48:36.292Z,57.70
2024-02-29T05:51:04.139Z,54.13
2024-02-29T05:53:31.884Z,57.63
2024-02-29T05:55:59.832Z,51.27
2024-02-29T05:58:31.524Z,55.50
2024-02-29T06:00:59.429Z,53.50
2024-02-29T06:03:27.398Z,52.07
2024-02-29T06:05:56.371Z,53.43
2024-02-29T06:08:23.995Z,57.90
2024-02-29T06:10:51.689Z,51.97
2024-02-29T06:13:19.406Z,48.77
2024-02-29T06:15:47.109Z,58.10
2024-02-29T06:18:15.360Z,55.97
2024-02-29T06:20:43.516Z,51.50
2024-02-29T06:23:12.457Z,53.30
2024-02-29T06:25:41.220Z,61.17
2024-02-29T06:28:08.870Z,55.53
2024-02-29T06:30:36.656Z,53.97
2024-02-29T06:33:05.073Z,56.97
2024-02-29T06:35:32.690Z,54.23
2024-02-29T06:38:00.417Z,53.33
2024-02-29T06:40:29.383Z,53.03
2024-02-29T06:42:57.280Z,57.53
2024-02-29T06:45:25.020Z,54.47
2024-02-29T06:47:52.765Z,54.67
2024-02-29T06:50:20.555Z,48.43
2024-02-29T06:52:50.159Z,55.00
2024-02-29T06:55:19.366Z,57.70
2024-02-29T06:57:49.236Z,52.20
2024-02-29T07:00:17.318Z,57.27
2024-02-29T07:02:45.137Z,53.60
2024-02-29T07:05:12.727Z,54.27
2024-02-29T07:07:40.379Z,63.80
2024-02-29T07:10:08.933Z,54.50
2024-02-29T07:12:37.370Z,48.57
2024-02-29T07:15:06.536Z,62.50
2024-02-29T07:17:34.306Z,59.10
2024-02-29T07:20:01.971Z,60.27
2024-02-29T07:22:29.598Z,54.30
2024-02-29T07:24:57.227Z,57.80
2024-02-29T07:27:25.343Z,46.03
2024-02-29T07:29:53.021Z,56.97
2024-02-29T07:32:21.923Z,49.17
2024-02-29T07:34:49.850Z,43.20
2024-02-29T07:37:17.495Z,38.77
2024-02-29T07:39:45.197Z,46.03
2024-02-29T07:42:13.014Z,48.87
2024-02-29T07:44:40.740Z,44.00
2024-02-29T07:47:08.646Z,44.67
2024-02-29T07:49:37.578Z,40.87
2024-02-29T07:52:05.660Z,40.60
2024-02-29T07:54:33.410Z,37.50
2024-02-29T07:57:02.656Z,37.53
2024-02-29T07:59:30.308Z,34.33
2024-02-29T08:01:58.335Z,32.87
2024-02-29T08:04:26.064Z,34.63
2024-02-29T08:06:54.971Z,37.53
2024-02-29T08:09:22.675Z,32.10
2024-02-29T08:11:50.369Z,35.50
2024-02-29T08:14:20.780Z,35.03
2024-02-29T08:16:48.768Z,31.80
2024-02-29T08:19:17.306Z,38.17
2024-02-29T08:21:45.137Z,34.97
2024-02-29T08:24:14.340Z,31.47
2024-02-29T08:26:42.094Z,34.70
2024-02-29T08:29:14.328Z,39.83
2024-02-29T08:31:44.125Z,33.63
2024-02-29T08:34:11.915Z,34.07
2024-02-29T08:36:39.695Z,30.45
2024-02-29T08:39:07.466Z,32.60
2024-02-29T08:41:36.388Z,39.10
2024-02-29T08:44:05.140Z,30.70
2024-02-29T08:46:33.024Z,33.22
2024-02-29T08:49:03.627Z,28.13
2024-02-29T08:51:32.657Z,34.65
2024-02-29T08:54:00.497Z,28.65
2024-02-29T08:56:28.183Z,29.60
2024-02-29T08:58:57.069Z,25.17
2024-02-29T09:01:24.787Z,32.08
2024-02-29T09:03:52.561Z,20.05
2024-02-29T09:06:20.233Z,25.55
2024-02-29T09:08:49.146Z,24.05
2024-02-29T09:11:16.897Z,25.90
2024-02-29T09:13:44.674Z,22.83
2024-02-29T09:16:13.992Z,25.45
2024-02-29T09:18:41.795Z,19.40
2024-02-29T09:21:09.460Z,24.60
2024-02-29T09:23:37.617Z,33.13
2024-02-29T09:26:05.399Z,35.25
2024-02-29T09:28:33.044Z,34.35
2024-02-29T09:31:00.803Z,32.63
2024-02-29T09:33:29.994Z,31.38
2024-02-29T09:35:58.985Z,34.65
2024-02-29T09:38:28.319Z,32.70
2024-02-29T09:41:03.277Z,35.17
2024-02-29T09:43:40.860Z,38.42
2024-02-29T09:46:11.319Z,29.17
2024-02-29T09:48:41.684Z,32.65
2024-02-29T09:51:16.176Z,32.95
2024-02-29T09:53:44.334Z,32.13
2024-02-29T09:56:12.621Z,29.95
2024-02-29T09:58:41.920Z,28.40
2024-02-29T10:01:10.477Z,32.30
2024-02-29T10:03:38.699Z,24.73
2024-02-29T10:06:07.914Z,29.45
2024-02-29T10:08:36.531Z,28.92
2024-02-29T10:11:04.668Z,29.40
2024-02-29T10:13:37.594Z,26.67
2024-02-29T10:16:05.450Z,31.00
2024-02-29T10:18:33.668Z,24.30
2024-02-29T10:21:01.354Z,18.08
2024-02-29T10:23:31.096Z,19.90
2024-02-29T10:25:58.825Z,16.40
2024-02-29T10:28:27.064Z,21.23
2024-02-29T10:30:55.671Z,17.88
2024-02-29T10:33:23.629Z,23.25
2024-02-29T10:35:51.706Z,16.85
2024-02-29T10:38:19.511Z,19.50
2024-02-29T10:40:50.597Z,21.45
2024-02-29T10:43:19.737Z,16.15
2024-02-29T10:45:48.215Z,24.73
2024-02-29T10:48:17.671Z,20.02
2024-02-29T10:50:50.634Z,17.35
2024-02-29T10:53:20.888Z,20.50
2024-02-29T10:55:51.918Z,19.52
2024-02-29T10:58:25.383Z,17.20
2024-02-29T11:00:53.439Z,16.00
2024-02-29T11:03:21.370Z,17.50
2024-02-29T11:05:49.174Z,15.68
2024-02-29T11:08:17.398Z,17.95
2024-02-29T11:10:47.685Z,15.80
2024-02-29T11:13:20.662Z,22.30
2024-02-29T11:15:50.981Z,15.20
2024-02-29T11:18:22.326Z,20.60
2024-02-29T11:20:50.457Z,19.65
2024-02-29T11:23:22.826Z,18.63
2024-02-29T11:25:52.895Z,15.55
2024-02-29T11:28:31.809Z,19.38
2024-02-29T11:31:09.292Z,23.15
2024-02-29T11:33:37.532Z,18.17
2024-02-29T11:36:06.115Z,15.95
2024-02-29T11:38:40.144Z,20.58
2024-02-29T11:41:16.608Z,15.38
2024-02-29T11:43:46.725Z,15.00
2024-02-29T11:46:15.234Z,17.63
2024-02-29T11:48:43.378Z,20.05
2024-02-29T11:51:11.114Z,19.55
2024-02-29T11:53:39.586Z,19.60
2024-02-29T11:56:14.933Z,18.63
2024-02-29T11:58:44.077Z,18.67
2024-02-29T12:01:14.399Z,18.77
2024-02-29T12:03:42.155Z,20.20
2024-02-29T12:06:09.860Z,18.67
2024-02-29T12:08:37.516Z,18.55
2024-02-29T12:11:05.292Z,21.63
2024-02-29T12:13:32.981Z,18.98
2024-02-29T12:16:00.695Z,26.27
2024-02-29T12:18:29.664Z,22.80
2024-02-29T12:20:57.791Z,23.33
2024-02-29T12:23:25.468Z,20.63
2024-02-29T12:25:53.250Z,18.33
2024-02-29T12:28:20.915Z,23.10
2024-02-29T12:30:49.842Z,21.15
2024-02-29T12:33:21.178Z,23.45
2024-02-29T12:35:52.851Z,23.65
2024-02-29T12:38:22.442Z,25.73
2024-02-29T12:40:52.909Z,19.65
2024-02-29T12:43:21.213Z,22.00
2024-02-29T12:45:49.011Z,24.88
2024-02-29T12:48:16.701Z,30.40
2024-02-29T12:50:44.398Z,21.98
2024-02-29T12:53:14.004Z,21.15
2024-02-29T12:55:42.231Z,23.73
2024-02-29T12:58:12.687Z,20.00
2024-02-29T13:00:40.486Z,23.83
2024-02-29T13:03:08.988Z,31.92
2024-02-29T13:05:37.211Z,21.13
2024-02-29T13:08:05.447Z,25.02
2024-02-29T13:10:34.412Z,25.30
2024-02-29T13:13:06.552Z,42.53
2024-02-29T13:15:38.146Z,22.15
2024-02-29T13:18:06.222Z,21.40
2024-02-29T13:20:33.942Z,27.73
2024-02-29T13:23:01.699Z,25.58
2024-02-29T13:25:29.659Z,26.30
2024-02-29T13:27:59.071Z,24.55
2024-02-29T13:30:26.810Z,29.40
2024-02-29T13:32:54.497Z,25.05
2024-02-29T13:35:22.143Z,27.88
2024-02-29T13:37:49.863Z,33.28
2024-02-29T13:40:17.559Z,28.85
2024-02-29T13:42:45.972Z,23.85
2024-02-29T13:45:14.924Z,25.77
2024-02-29T13:47:47.964Z,22.98
2024-02-29T13:50:15.798Z,30.73
2024-02-29T13:52:44.453Z,25.85
2024-02-29T13:55:12.702Z,26.40
2024-02-29T13:57:40.708Z,26.13
2024-02-29T14:00:09.765Z,32.47
2024-02-29T14:02:43.498Z,30.35
2024-02-29T14:05:11.187Z,23.65
2024-02-29T14:07:39.037Z,34.58
2024-02-29T14:10:07.743Z,26.13
2024-02-29T14:12:36.174Z,28.88
2024-02-29T14:15:04.347Z,28.02
2024-02-29T14:17:32.092Z,29.90
2024-02-29T14:20:01.099Z,29.98
2024-02-29T14:22:28.893Z,21.80
2024-02-29T14:24:56.584Z,26.10
2024-02-29T14:27:24.303Z,26.45
2024-02-29T14:29:51.934Z,23.27
2024-02-29T14:32:19.717Z,27.67
2024-02-29T14:34:47.315Z,30.58
2024-02-29T14:37:16.470Z,34.83
2024-02-29T14:39:45.295Z,34.72
2024-02-29T14:42:14.977Z,23.58
2024-02-29T14:44:42.656Z,33.90
2024-02-29T14:47:10.403Z,29.20
2024-02-29T14:49:38.227Z,27.50
2024-02-29T14:52:07.435Z,24.80
2024-02-29T14:54:36.448Z,28.25
2024-02-29T14:57:04.136Z,22.65
2024-02-29T14:59:31.927Z,24.52
2024-02-29T15:01:59.764Z,28.23
2024-02-29T15:04:27.574Z,30.02
2024-02-29T15:06:56.016Z,29.88
2024-02-29T15:09:23.646Z,24.08
2024-02-29T15:11:52.515Z,27.52
2024-02-29T15:14:20.295Z,25.88
2024-02-29T15:16:48.005Z,28.08
2024-02-29T15:19:15.711Z,22.33
2024-02-29T15:21:44.614Z,31.45
2024-02-29T15:24:12.265Z,26.20
2024-02-29T15:26:40.514Z,27.25
2024-02-29T15:29:09.749Z,31.80
2024-02-29T15:31:41.043Z,28.90
2024-02-29T15:34:09.146Z,23.90
2024-02-29T15:36:36.851Z,31.95
2024-02-29T15:39:04.600Z,25.75
2024-02-29T15:41:32.722Z,28.40
2024-02-29T15:44:00.367Z,25.48
2024-02-29T15:46:29.313Z,29.98
2024-02-29T15:48:57.021Z,27.77
2024-02-29T15:51:26.020Z,26.98
2024-02-29T15:53:53.647Z,27.35
2024-02-29T15:56:21.306Z,29.77
2024-02-29T15:58:48.913Z,31.13
2024-02-29T16:01:17.197Z,25.00
2024-02-29T16:03:46.291Z,26.33
2024-02-29T16:06:14.131Z,31.98
2024-02-29T16:08:41.842Z,26.67
2024-02-29T16:11:09.546Z,24.45
2024-02-29T16:13:37.275Z,28.10
2024-02-29T16:16:05.717Z,26.63
2024-02-29T16:18:33.371Z,31.23
2024-02-29T16:21:03.579Z,32.85
2024-02-29T16:23:31.239Z,28.73
2024-02-29T16:25:58.888Z,26.52
2024-02-29T16:28:27.967Z,28.13
2024-02-29T16:30:55.640Z,30.52
2024-02-29T16:33:23.351Z,28.15
2024-02-29T16:35:51.077Z,34.65
2024-02-29T16:38:20.367Z,24.52
2024-02-29T16:40:48.595Z,24.92
2024-02-29T16:43:21.418Z,28.17
2024-02-29T16:45:49.563Z,26.52
2024-02-29T16:48:17.357Z,32.67
2024-02-29T16:50:46.295Z,37.25
2024-02-29T16:53:14.290Z,33.42
2024-02-29T16:55:43.317Z,27.63
2024-02-29T16:58:11.281Z,28.92
2024-02-29T17:00:39.193Z,34.42
2024-02-29T17:03:07.039Z,33.22
2024-02-29T17:05:34.667Z,27.83
2024-02-29T17:08:02.540Z,36.00
2024-02-29T17:10:31.744Z,34.50
2024-02-29T17:13:00.729Z,35.85
2024-02-29T17:15:28.456Z,32.88
2024-02-29T17:17:56.384Z,33.45
2024-02-29T17:20:24.020Z,30.77
2024-02-29T17:22:51.690Z,35.67
2024-02-29T17:25:19.810Z,36.00
2024-02-29T17:27:47.536Z,30.53
2024-02-29T17:30:17.533Z,29.13
2024-02-29T17:32:47.889Z,27.90
2024-02-29T17:35:17.091Z,32.27
2024-02-29T17:37:45.344Z,27.90
2024-02-29T17:40:13.468Z,35.63
2024-02-29T17:42:41.394Z,28.43
2024-02-29T17:45:10.761Z,36.60
2024-02-29T17:47:43.157Z,30.83
2024-02-29T17:50:16.410Z,35.50
2024-02-29T17:52:44.216Z,36.10
2024-02-29T17:55:14.880Z,28.57
2024-02-29T17:57:43.266Z,29.13
2024-02-29T18:00:11.942Z,27.30
2024-02-29T18:02:41.094Z,32.57
2024-02-29T18:05:09.565Z,31.30
2024-02-29T18:07:43.684Z,28.87
2024-02-29T18:10:18.723Z,30.40
2024-02-29T18:12:46.562Z,37.93
2024-02-29T18:15:15.982Z,36.43
2024-02-29T18:17:45.218Z,32.23
2024-02-29T18:20:15.372Z,33.57
2024-02-29T18:22:43.060Z,30.67
2024-02-29T18:25:11.143Z,39.40
2024-02-29T18:27:38.930Z,31.03
2024-02-29T18:30:07.939Z,37.30
2024-02-29T18:32:35.826Z,29.67
2024-02-29T18:35:09.546Z,32.13
2024-02-29T18:37:37.302Z,32.23
2024-02-29T18:40:05.507Z,35.70
2024-02-29T18:42:33.546Z,32.97
2024-02-29T18:45:02.054Z,30.80
2024-02-29T18:47:30.015Z,38.93
2024-02-29T18:49:57.790Z,30.87
2024-02-29T18:52:26.814Z,38.07
2024-02-29T18:54:54.561Z,34.70
2024-02-29T18:57:22.549Z,34.73
2024-02-29T18:59:50.314Z,45.30
2024-02-29T19:02:17.897Z,41.33
2024-02-29T19:04:45.590Z,35.87
2024-02-29T19:07:13.335Z,32.30
2024-02-29T19:09:43.374Z,34.03
2024-02-29T19:12:11.394Z,39.30
2024-02-29T19:14:39.125Z,42.27
2024-02-29T19:17:06.841Z,33.07
2024-02-29T19:19:35.628Z,35.80
2024-02-29T19:22:04.872Z,33.63
2024-02-29T19:24:32.683Z,39.53
2024-02-29T19:27:01.618Z,35.70
2024-02-29T19:29:29.903Z,36.60
2024-02-29T19:31:57.532Z,40.83
2024-02-29T19:34:25.407Z,35.60
2024-02-29T19:36:53.255Z,41.97
2024-02-29T19:39:20.947Z,43.90
2024-02-29T19:41:48.567Z,34.50
2024-02-29T19:44:17.544Z,36.30
2024-02-29T19:46:45.529Z,40.00
2024-02-29T19:49:13.373Z,33.30
2024-02-29T19:51:41.700Z,33.97
2024-02-29T19:54:11.713Z,36.23
2024-02-29T19:56:41.134Z,34.80
2024-02-29T19:59:08.978Z,34.33
2024-02-29T20:01:38.133Z,38.63
2024-02-29T20:04:05.870Z,37.13
2024-02-29T20:06:33.614Z,38.97
2024-02-29T20:09:01.219Z,38.00
2024-02-29T20:11:28.874Z,38.27
2024-02-29T20:13:57.290Z,39.77
2024-02-29T20:16:24.980Z,49.30
2024-02-29T20:18:54.116Z,46.90
2024-02-29T20:21:22.310Z,46.73
2024-02-29T20:23:49.919Z,36.13
2024-02-29T20:26:18.204Z,31.93
2024-02-29T20:28:45.927Z,34.73
2024-02-29T20:31:13.726Z,33.27
2024-02-29T20:33:41.850Z,30.93
2024-02-29T20:36:11.666Z,33.50
2024-02-29T20:38:39.398Z,35.70
2024-02-29T20:41:07.156Z,36.23
2024-02-29T20:43:34.815Z,32.27
2024-02-29T20:46:02.593Z,37.80
2024-02-29T20:48:30.273Z,42.20
2024-02-29T20:50:57.951Z,33.30
2024-02-29T20:53:26.862Z,34.57
2024-02-29T20:55:54.552Z,34.67
2024-02-29T20:58:22.223Z,38.13
2024-02-29T21:00:53.916Z,44.20
2024-02-29T21:03:21.615Z,36.07
2024-02-29T21:05:49.300Z,43.37
2024-02-29T21:08:16.928Z,34.20
2024-02-29T21:10:46.848Z,42.13
2024-02-29T21:13:14.560Z,38.80
2024-02-29T21:15:43.102Z,52.40
2024-02-29T21:18:10.954Z,36.80
2024-02-29T21:20:38.681Z,45.53
2024-02-29T21:23:07.025Z,37.50
2024-02-29T21:25:34.669Z,44.17
2024-02-29T21:28:04.005Z,41.77
2024-02-29T21:30:32.668Z,36.90
2024-02-29T21:33:21.166Z,38.27
2024-02-29T21:35:50.271Z,38.47
2024-02-29T21:38:18.564Z,48.57
2024-02-29T21:40:46.898Z,32.73
2024-02-29T21:43:15.794Z,34.07
2024-02-29T21:45:44.279Z,43.67
2024-02-29T21:48:11.998Z,32.40
2024-02-29T21:50:41.630Z,35.63
2024-02-29T21:53:09.369Z,42.70
2024-02-29T21:55:37.125Z,37.83
2024-02-29T21:58:04.951Z,38.37
2024-02-29T22:00:34.291Z,36.87
2024-02-29T22:03:01.907Z,35.13
2024-02-29T22:05:29.703Z,50.53
2024-02-29T22:07:57.513Z,44.07
2024-02-29T22:10:25.754Z,43.13
2024-02-29T22:12:53.762Z,41.40
2024-02-29T22:15:21.607Z,38.73
2024-02-29T22:17:50.649Z,38.60
2024-02-29T22:20:18.261Z,44.20
2024-02-29T22:22:45.874Z,43.67
2024-02-29T22:25:17.206Z,38.50
2024-02-29T22:27:44.938Z,37.97
2024-02-29T22:30:12.940Z,44.73
2024-02-29T22:32:41.466Z,35.93
2024-02-29T22:35:10.685Z,39.47
2024-02-29T22:37:38.354Z,53.53
2024-02-29T22:40:06.909Z,34.97
2024-02-29T22:42:34.706Z,43.50
2024-02-29T22:45:02.457Z,46.80
2024-02-29T22:47:30.067Z,35.13
2024-02-29T22:49:57.674Z,41.23
2024-02-29T22:52:26.626Z,43.40
2024-02-29T22:54:54.333Z,39.87
2024-02-29T22:57:22.007Z,39.67
2024-02-29T22:59:49.590Z,37.23
2024-02-29T23:02:17.293Z,43.87
2024-02-29T23:04:45.257Z,42.20
2024-02-29T23:07:12.938Z,39.40
2024-02-29T23:09:41.895Z,37.87
2024-02-29T23:12:09.669Z,42.37
2024-02-29T23:14:37.350Z,40.70
2024-02-29T23:17:04.980Z,49.33
2024-02-29T23:19:32.894Z,38.13
2024-02-29T23:22:00.634Z,55.23
2024-02-29T23:24:28.282Z,33.80
2024-02-29T23:26:57.166Z,42.53
2024-02-29T23:29:24.917Z,43.00
2024-02-29T23:31:53.313Z,39.20
2024-02-29T23:34:21.048Z,44.33
2024-02-29T23:36:50.735Z,42.93
2024-02-29T23:39:18.364Z,43.80
2024-02-29T23:41:45.998Z,44.47
2024-02-29T23:44:15.230Z,48.03
2024-02-29T23:46:43.431Z,39.33
2024-02-29T23:49:11.139Z,50.53
2024-02-29T23:51:38.856Z,36.50
2024-02-29T23:54:06.808Z,41.83
2024-02-29T23:56:34.455Z,42.50
2024-02-29T23:59:02.120Z,37.00
